createdAt,value
2018-06-08T00:01:14.867Z,100448.00
2018-06-08T00:03:45.189Z,100456.00
2018-06-08T00:06:15.221Z,100459.00
2018-06-08T00:08:46.160Z,100452.00
2018-06-08T00:11:16.491Z,100454.00
2018-06-08T00:13:46.921Z,100462.00
2018-06-08T00:16:17.059Z,100459.00
2018-06-08T00:18:47.467Z,100459.00
2018-06-08T00:21:17.586Z,100463.00
2018-06-08T00:23:48.122Z,100466.00
2018-06-08T00:26:18.476Z,100468.00
2018-06-08T00:28:49.457Z,100461.00
2018-06-08T00:31:20.593Z,100461.00
2018-06-08T00:33:50.744Z,100460.00
2018-06-08T00:36:21.617Z,100452.00
2018-06-08T00:38:52.816Z,100462.00
2018-06-08T00:41:22.922Z,100459.00
2018-06-08T00:43:54.508Z,100451.00
2018-06-08T00:46:25.602Z,100454.00
2018-06-08T00:48:55.846Z,100461.00
2018-06-08T00:51:27.693Z,100459.00
2018-06-08T00:53:58.644Z,100459.00
2018-06-08T00:56:45.228Z,100460.00
2018-06-08T00:59:16.317Z,100448.00
2018-06-08T01:01:46.540Z,100445.00
2018-06-08T01:04:16.749Z,100444.00
2018-06-08T01:06:47.044Z,100441.00
2018-06-08T01:09:18.285Z,100440.00
2018-06-08T01:11:48.380Z,100446.00
2018-06-08T01:14:34.544Z,100444.00
2018-06-08T01:17:04.943Z,100443.00
2018-06-08T01:19:36.053Z,100461.00
2018-06-08T01:22:06.917Z,100453.00
2018-06-08T01:24:38.608Z,100461.00
2018-06-08T01:27:08.788Z,100450.00
2018-06-08T01:29:39.521Z,100443.00
2018-06-08T01:32:11.526Z,100444.00
2018-06-08T01:34:41.571Z,100442.00
2018-06-08T01:37:12.352Z,100440.00
2018-06-08T01:39:42.758Z,100438.00
2018-06-08T01:42:12.921Z,100447.00
2018-06-08T01:44:43.146Z,100426.00
2018-06-08T01:47:15.955Z,100428.00
2018-06-08T01:49:46.512Z,100430.00
2018-06-08T01:52:18.165Z,100431.00
2018-06-08T01:54:49.332Z,100429.00
2018-06-08T01:57:23.807Z,100435.00
2018-06-08T01:59:55.287Z,100422.00
2018-06-08T02:02:26.220Z,100414.00
2018-06-08T02:04:56.750Z,100413.00
2018-06-08T02:07:27.816Z,100413.00
2018-06-08T02:09:58.010Z,100412.00
2018-06-08T02:12:29.463Z,100419.00
2018-06-08T02:15:00.487Z,100402.00
2018-06-08T02:17:32.577Z,100408.00
2018-06-08T02:20:03.093Z,100417.00
2018-06-08T02:22:33.454Z,100422.00
2018-06-08T02:25:04.594Z,100421.00
2018-06-08T02:27:38.125Z,100421.00
2018-06-08T02:30:08.989Z,100423.00
2018-06-08T02:32:40.259Z,100420.00
2018-06-08T02:35:10.897Z,100421.00
2018-06-08T02:37:41.471Z,100420.00
2018-06-08T02:40:11.952Z,100412.00
2018-06-08T02:42:42.492Z,100403.00
2018-06-08T02:45:13.236Z,100416.00
2018-06-08T02:47:44.075Z,100422.00
2018-06-08T02:50:14.556Z,100410.00
2018-06-08T02:52:44.856Z,100417.00
2018-06-08T02:55:15.188Z,100416.00
2018-06-08T02:57:45.539Z,100401.00
2018-06-08T03:00:15.594Z,100411.00
2018-06-08T03:02:45.990Z,100411.00
2018-06-08T03:05:16.762Z,100408.00
2018-06-08T03:07:52.961Z,100411.00
2018-06-08T03:10:23.195Z,100416.00
2018-06-08T03:12:53.691Z,100410.00
2018-06-08T03:15:24.572Z,100417.00
2018-06-08T03:17:55.008Z,100419.00
2018-06-08T03:20:26.044Z,100423.00
2018-06-08T03:22:57.168Z,100427.00
2018-06-08T03:25:27.405Z,100424.00
2018-06-08T03:27:58.102Z,100422.00
2018-06-08T03:30:28.556Z,100421.00
2018-06-08T03:32:58.950Z,100420.00
2018-06-08T03:35:29.664Z,100420.00
2018-06-08T03:37:59.911Z,100417.00
2018-06-08T03:40:30.367Z,100416.00
2018-06-08T03:43:00.479Z,100421.00
2018-06-08T03:45:30.852Z,100417.00
2018-06-08T03:48:01.101Z,100423.00
2018-06-08T03:50:32.566Z,100407.00
2018-06-08T03:53:03.166Z,100413.00
2018-06-08T03:55:33.273Z,100414.00
2018-06-08T03:58:06.504Z,100408.00
2018-06-08T04:00:36.769Z,100409.00
2018-06-08T04:03:06.980Z,100402.00
2018-06-08T04:05:37.065Z,100404.00
2018-06-08T04:08:07.473Z,100401.00
2018-06-08T04:10:37.685Z,100403.00
2018-06-08T04:13:08.213Z,100410.00
2018-06-08T04:15:38.413Z,100414.00
2018-06-08T04:18:08.694Z,100411.00
2018-06-08T04:20:39.113Z,100407.00
2018-06-08T04:23:09.607Z,100410.00
2018-06-08T04:25:41.640Z,100408.00
2018-06-08T04:28:18.436Z,100410.00
2018-06-08T04:30:48.680Z,100400.00
2018-06-08T04:33:18.930Z,100417.00
2018-06-08T04:35:49.356Z,100413.00
2018-06-08T04:38:19.473Z,100413.00
2018-06-08T04:40:49.678Z,100413.00
2018-06-08T04:43:19.914Z,100418.00
2018-06-08T04:45:50.128Z,100421.00
2018-06-08T04:48:20.388Z,100428.00
2018-06-08T04:50:50.517Z,100427.00
2018-06-08T04:53:20.749Z,100424.00
2018-06-08T04:55:50.938Z,100428.00
2018-06-08T04:58:21.267Z,100424.00
2018-06-08T05:00:51.482Z,100423.00
2018-06-08T05:03:21.870Z,100422.00
2018-06-08T05:05:52.220Z,100424.00
2018-06-08T05:08:23.333Z,100437.00
2018-06-08T05:10:53.733Z,100426.00
2018-06-08T05:13:24.581Z,100427.00
2018-06-08T05:15:54.650Z,100426.00
2018-06-08T05:18:25.107Z,100436.00
2018-06-08T05:20:55.399Z,100430.00
2018-06-08T05:23:25.805Z,100432.00
2018-06-08T05:25:56.929Z,100423.00
2018-06-08T05:28:28.065Z,100432.00
2018-06-08T05:30:58.445Z,100429.00
2018-06-08T05:33:28.602Z,100429.00
2018-06-08T05:35:59.029Z,100445.00
2018-06-08T05:38:29.031Z,100438.00
2018-06-08T05:40:59.585Z,100445.00
2018-06-08T05:43:29.782Z,100435.00
2018-06-08T05:46:00.211Z,100437.00
2018-06-08T05:48:30.531Z,100445.00
2018-06-08T05:51:00.836Z,100443.00
2018-06-08T05:53:31.229Z,100452.00
2018-06-08T05:56:01.857Z,100450.00
2018-06-08T05:58:32.147Z,100455.00
2018-06-08T06:01:02.524Z,100450.00
2018-06-08T06:03:33.041Z,100448.00
2018-06-08T06:06:04.445Z,100454.00
2018-06-08T06:08:34.846Z,100456.00
2018-06-08T06:11:05.507Z,100457.00
2018-06-08T06:13:36.344Z,100460.00
2018-06-08T06:16:07.153Z,100455.00
2018-06-08T06:18:37.450Z,100455.00
2018-06-08T06:21:07.711Z,100449.00
2018-06-08T06:23:38.058Z,100457.00
2018-06-08T06:26:08.966Z,100459.00
2018-06-08T06:28:39.934Z,100465.00
2018-06-08T06:31:10.327Z,100475.00
2018-06-08T06:33:41.582Z,100467.00
2018-06-08T06:36:11.902Z,100474.00
2018-06-08T06:38:42.411Z,100468.00
2018-06-08T06:41:13.357Z,100477.00
2018-06-08T06:43:43.657Z,100414.00
2018-06-08T06:46:14.274Z,100473.00
2018-06-08T06:48:46.868Z,100478.00
2018-06-08T06:51:17.105Z,100476.00
2018-06-08T06:53:47.581Z,100475.00
2018-06-08T06:56:17.650Z,100471.00
2018-06-08T06:58:48.787Z,100461.00
2018-06-08T07:01:18.984Z,100461.00
2018-06-08T07:03:49.615Z,100468.00
2018-06-08T07:06:19.831Z,100466.00
2018-06-08T07:08:50.464Z,100466.00
2018-06-08T07:11:20.726Z,100471.00
2018-06-08T07:13:51.244Z,100477.00
2018-06-08T07:16:22.528Z,100485.00
2018-06-08T07:18:53.031Z,100475.00
2018-06-08T07:21:24.229Z,100478.00
2018-06-08T07:23:54.411Z,100485.00
2018-06-08T07:26:25.929Z,100479.00
2018-06-08T07:28:57.503Z,100480.00
2018-06-08T07:31:28.305Z,100488.00
2018-06-08T07:33:58.421Z,100480.00
2018-06-08T07:36:28.873Z,100476.00
2018-06-08T07:38:59.408Z,100484.00
2018-06-08T07:41:30.341Z,100476.00
2018-06-08T07:44:01.736Z,100486.00
2018-06-08T07:46:32.530Z,100483.00
2018-06-08T07:49:03.906Z,100485.00
2018-06-08T07:51:34.544Z,100482.00
2018-06-08T07:54:05.480Z,100492.00
2018-06-08T07:56:36.270Z,100489.00
2018-06-08T07:59:06.595Z,100501.00
2018-06-08T08:01:36.971Z,100507.00
2018-06-08T08:04:07.236Z,100496.00
2018-06-08T08:06:37.473Z,100498.00
2018-06-08T08:09:11.309Z,100505.00
2018-06-08T08:11:41.579Z,100500.00
2018-06-08T08:14:11.814Z,100507.00
2018-06-08T08:16:43.192Z,100508.00
2018-06-08T08:19:13.397Z,100512.00
2018-06-08T08:21:43.659Z,100509.00
2018-06-08T08:24:14.057Z,100511.00
2018-06-08T08:26:44.883Z,100514.00
2018-06-08T08:29:15.879Z,100519.00
2018-06-08T08:31:48.037Z,100525.00
2018-06-08T08:34:20.277Z,100525.00
2018-06-08T08:36:52.402Z,100524.00
2018-06-08T08:39:23.148Z,100528.00
2018-06-08T08:41:53.659Z,100535.00
2018-06-08T08:44:24.114Z,100527.00
2018-06-08T08:46:54.865Z,100536.00
2018-06-08T08:49:24.911Z,100540.00
2018-06-08T08:51:55.368Z,100538.00
2018-06-08T08:54:25.320Z,100527.00
2018-06-08T08:56:55.626Z,100526.00
2018-06-08T08:59:26.001Z,100535.00
2018-06-08T09:01:56.180Z,100537.00
2018-06-08T09:04:27.408Z,100538.00
2018-06-08T09:06:57.487Z,100543.00
2018-06-08T09:09:28.280Z,100541.00
2018-06-08T09:12:00.424Z,100538.00
2018-06-08T09:14:32.116Z,100531.00
2018-06-08T09:17:04.345Z,100539.00
2018-06-08T09:19:36.572Z,100534.00
2018-06-08T09:22:10.499Z,100540.00
2018-06-08T09:24:42.547Z,100533.00
2018-06-08T09:27:14.367Z,100542.00
2018-06-08T09:29:44.127Z,100542.00
2018-06-08T09:32:14.800Z,100535.00
2018-06-08T09:34:45.399Z,100536.00
2018-06-08T09:37:16.183Z,100532.00
2018-06-08T09:39:46.612Z,100535.00
2018-06-08T09:42:16.831Z,100531.00
2018-06-08T09:44:47.034Z,100535.00
2018-06-08T09:47:18.131Z,100531.00
2018-06-08T09:49:49.172Z,100532.00
2018-06-08T09:52:19.331Z,100532.00
2018-06-08T09:54:50.267Z,100540.00
2018-06-08T09:57:21.900Z,100538.00
2018-06-08T09:59:52.105Z,100536.00
2018-06-08T10:02:22.272Z,100533.00
2018-06-08T10:04:52.670Z,100539.00
2018-06-08T10:07:23.200Z,100534.00
2018-06-08T10:09:53.267Z,100538.00
2018-06-08T10:12:24.717Z,100536.00
2018-06-08T10:14:55.301Z,100536.00
2018-06-08T10:17:25.834Z,100532.00
2018-06-08T10:19:56.075Z,100537.00
2018-06-08T10:22:28.754Z,100537.00
2018-06-08T10:24:59.320Z,100531.00
2018-06-08T10:27:30.388Z,100539.00
2018-06-08T10:30:00.764Z,100528.00
2018-06-08T10:32:31.006Z,100536.00
2018-06-08T10:35:01.405Z,100534.00
2018-06-08T10:37:32.188Z,100525.00
2018-06-08T10:40:02.548Z,100530.00
2018-06-08T10:42:32.641Z,100536.00
2018-06-08T10:45:02.929Z,100526.00
2018-06-08T10:47:33.174Z,100524.00
2018-06-08T10:50:04.891Z,100518.00
2018-06-08T10:52:35.092Z,100525.00
2018-06-08T10:55:05.650Z,100522.00
2018-06-08T10:57:36.790Z,100527.00
2018-06-08T11:00:07.806Z,100529.00
2018-06-08T11:02:38.897Z,100524.00
2018-06-08T11:05:09.497Z,100516.00
2018-06-08T11:07:39.724Z,100519.00
2018-06-08T11:10:10.310Z,100514.00
2018-06-08T11:12:40.633Z,100500.00
2018-06-08T11:15:11.225Z,100504.00
2018-06-08T11:17:41.608Z,100500.00
2018-06-08T11:20:12.408Z,100510.00
2018-06-08T11:22:42.698Z,100497.00
2018-06-08T11:25:12.977Z,100498.00
2018-06-08T11:27:43.099Z,100507.00
2018-06-08T11:30:13.361Z,100503.00
2018-06-08T11:32:44.464Z,100505.00
2018-06-08T11:35:14.623Z,100505.00
2018-06-08T11:37:45.053Z,100498.00
2018-06-08T11:40:16.201Z,100501.00
2018-06-08T11:42:46.446Z,100497.00
2018-06-08T11:45:16.562Z,100500.00
2018-06-08T11:47:46.896Z,100495.00
2018-06-08T11:50:17.288Z,100501.00
2018-06-08T11:52:47.357Z,100490.00
2018-06-08T11:55:18.990Z,100493.00
2018-06-08T11:57:49.110Z,100491.00
2018-06-08T12:00:19.888Z,100486.00
2018-06-08T12:02:49.956Z,100478.00
2018-06-08T12:05:20.030Z,100484.00
2018-06-08T12:07:50.242Z,100482.00
2018-06-08T12:10:20.756Z,100485.00
2018-06-08T12:12:51.825Z,100481.00
2018-06-08T12:15:22.534Z,100479.00
2018-06-08T12:17:52.656Z,100476.00
2018-06-08T12:20:23.080Z,100473.00
2018-06-08T12:22:53.180Z,100478.00
2018-06-08T12:25:24.045Z,100473.00
2018-06-08T12:27:54.850Z,100477.00
2018-06-08T12:30:25.048Z,100467.00
2018-06-08T12:32:55.179Z,100466.00
2018-06-08T12:35:25.448Z,100472.00
2018-06-08T12:37:55.809Z,100471.00
2018-06-08T12:40:26.005Z,100466.00
2018-06-08T12:42:56.213Z,100459.00
2018-06-08T12:45:26.513Z,100464.00
2018-06-08T12:47:57.537Z,100455.00
2018-06-08T12:50:28.048Z,100455.00
2018-06-08T12:52:58.407Z,100469.00
2018-06-08T12:55:28.676Z,100471.00
2018-06-08T12:57:59.207Z,100452.00
2018-06-08T13:00:29.298Z,100457.00
2018-06-08T13:03:00.795Z,100454.00
2018-06-08T13:05:31.059Z,100450.00
2018-06-08T13:08:01.453Z,100461.00
2018-06-08T13:10:31.653Z,100452.00
2018-06-08T13:13:01.983Z,100455.00
2018-06-08T13:15:32.133Z,100451.00
2018-06-08T13:18:02.408Z,100450.00
2018-06-08T13:20:32.746Z,100447.00
2018-06-08T13:23:02.853Z,100447.00
2018-06-08T13:25:33.285Z,100447.00
2018-06-08T13:28:03.569Z,100449.00
2018-06-08T13:30:33.995Z,100446.00
2018-06-08T13:33:04.433Z,100439.00
2018-06-08T13:35:35.553Z,100439.00
2018-06-08T13:38:05.963Z,100438.00
2018-06-08T13:40:36.772Z,100432.00
2018-06-08T13:43:08.045Z,100435.00
2018-06-08T13:45:38.516Z,100430.00
2018-06-08T13:48:09.102Z,100427.00
2018-06-08T13:50:40.099Z,100425.00
2018-06-08T13:53:11.989Z,100425.00
2018-06-08T13:55:43.253Z,100423.00
2018-06-08T13:58:14.717Z,100414.00
2018-06-08T14:00:45.131Z,100413.00
2018-06-08T14:03:16.198Z,100411.00
2018-06-08T14:05:47.496Z,100409.00
2018-06-08T14:08:18.230Z,100419.00
2018-06-08T14:10:48.475Z,100413.00
2018-06-08T14:13:19.225Z,100413.00
2018-06-08T14:15:49.539Z,100415.00
2018-06-08T14:18:20.267Z,100403.00
2018-06-08T14:20:50.759Z,100398.00
2018-06-08T14:23:23.519Z,100408.00
2018-06-08T14:25:54.336Z,100405.00
2018-06-08T14:28:25.631Z,100409.00
2018-06-08T14:30:55.725Z,100399.00
2018-06-08T14:33:26.179Z,100376.00
2018-06-08T14:35:56.667Z,100400.00
2018-06-08T14:38:28.142Z,100414.00
2018-06-08T14:40:59.518Z,100404.00
2018-06-08T14:43:30.500Z,100414.00
2018-06-08T14:46:00.949Z,100402.00
2018-06-08T14:48:31.672Z,100377.00
2018-06-08T14:51:01.705Z,100386.00
2018-06-08T14:53:31.995Z,100406.00
2018-06-08T14:56:02.648Z,100411.00
2018-06-08T14:58:33.117Z,100399.00
2018-06-08T15:01:03.188Z,100389.00
2018-06-08T15:03:33.723Z,100396.00
2018-06-08T15:06:05.273Z,100407.00
2018-06-08T15:08:37.074Z,100403.00
2018-06-08T15:11:08.420Z,100400.00
2018-06-08T15:13:39.028Z,100395.00
2018-06-08T15:16:10.212Z,100395.00
2018-06-08T15:18:41.253Z,100390.00
2018-06-08T15:21:11.437Z,100394.00
2018-06-08T15:23:41.826Z,100398.00
2018-06-08T15:26:12.132Z,100393.00
2018-06-08T15:28:47.428Z,100394.00
2018-06-08T15:31:18.228Z,100399.00
2018-06-08T15:33:49.231Z,100390.00
2018-06-08T15:36:19.248Z,100367.00
2018-06-08T15:38:49.855Z,100388.00
2018-06-08T15:41:20.103Z,100398.00
2018-06-08T15:43:50.248Z,100390.00
2018-06-08T15:46:20.525Z,100397.00
2018-06-08T15:48:52.202Z,100395.00
2018-06-08T15:51:24.396Z,100401.00
2018-06-08T15:53:54.964Z,100393.00
2018-06-08T15:56:25.787Z,100394.00
2018-06-08T15:58:56.813Z,100390.00
2018-06-08T16:01:27.301Z,100380.00
2018-06-08T16:03:58.621Z,100387.00
2018-06-08T16:06:30.261Z,100381.00
2018-06-08T16:09:00.559Z,100376.00
2018-06-08T16:11:30.709Z,100396.00
2018-06-08T16:14:01.294Z,100378.00
2018-06-08T16:16:32.669Z,100378.00
2018-06-08T16:19:02.896Z,100378.00
2018-06-08T16:21:33.107Z,100376.00
2018-06-08T16:24:03.352Z,100381.00
2018-06-08T16:26:33.762Z,100374.00
2018-06-08T16:29:04.058Z,100376.00
2018-06-08T16:31:34.361Z,100378.00
2018-06-08T16:34:04.542Z,100374.00
2018-06-08T16:36:35.926Z,100381.00
2018-06-08T16:39:08.124Z,100390.00
2018-06-08T16:41:38.915Z,100383.00
2018-06-08T16:44:09.662Z,100394.00
2018-06-08T16:46:40.661Z,100387.00
2018-06-08T16:49:10.770Z,100377.00
2018-06-08T16:51:41.975Z,100379.00
2018-06-08T16:54:13.348Z,100378.00
2018-06-08T16:56:43.982Z,100372.00
2018-06-08T16:59:15.393Z,100371.00
2018-06-08T17:01:46.161Z,100365.00
2018-06-08T17:04:17.265Z,100363.00
2018-06-08T17:06:48.994Z,100357.00
2018-06-08T17:09:19.281Z,100364.00
2018-06-08T17:11:49.605Z,100361.00
2018-06-08T17:14:19.830Z,100361.00
2018-06-08T17:16:50.205Z,100358.00
2018-06-08T17:19:20.524Z,100351.00
2018-06-08T17:21:51.260Z,100348.00
2018-06-08T17:24:21.840Z,100360.00
2018-06-08T17:26:53.031Z,100346.00
2018-06-08T17:29:23.965Z,100357.00
2018-06-08T17:31:54.449Z,100363.00
2018-06-08T17:34:24.755Z,100368.00
2018-06-08T17:36:55.646Z,100368.00
2018-06-08T17:39:26.389Z,100362.00
2018-06-08T17:41:58.423Z,100365.00
2018-06-08T17:44:28.578Z,100364.00
2018-06-08T17:46:59.581Z,100370.00
2018-06-08T17:49:30.347Z,100363.00
2018-06-08T17:52:01.231Z,100367.00
2018-06-08T17:54:32.146Z,100364.00
2018-06-08T17:57:04.052Z,100365.00
2018-06-08T17:59:35.173Z,100363.00
2018-06-08T18:02:06.935Z,100374.00
2018-06-08T18:04:38.341Z,100366.00
2018-06-08T18:07:08.627Z,100371.00
2018-06-08T18:09:39.314Z,100368.00
2018-06-08T18:12:09.588Z,100363.00
2018-06-08T18:14:39.858Z,100356.00
2018-06-08T18:17:10.545Z,100352.00
2018-06-08T18:19:44.382Z,100353.00
2018-06-08T18:22:15.094Z,100356.00
2018-06-08T18:24:46.224Z,100351.00
2018-06-08T18:27:17.174Z,100349.00
2018-06-08T18:29:47.932Z,100349.00
2018-06-08T18:32:19.703Z,100345.00
2018-06-08T18:34:51.448Z,100345.00
2018-06-08T18:37:21.919Z,100342.00
2018-06-08T18:39:54.057Z,100338.00
2018-06-08T18:42:24.515Z,100349.00
2018-06-08T18:44:56.323Z,100351.00
2018-06-08T18:47:27.190Z,100344.00
2018-06-08T18:49:58.199Z,100349.00
2018-06-08T18:52:28.316Z,100357.00
2018-06-08T18:54:58.756Z,100356.00
2018-06-08T18:57:29.215Z,100350.00
2018-06-08T18:59:59.606Z,100351.00
2018-06-08T19:02:31.298Z,100351.00
2018-06-08T19:05:02.011Z,100355.00
2018-06-08T19:07:32.227Z,100352.00
2018-06-08T19:10:02.281Z,100353.00
2018-06-08T19:12:33.191Z,100354.00
2018-06-08T19:15:05.417Z,100351.00
2018-06-08T19:17:37.644Z,100343.00
2018-06-08T19:20:08.062Z,100344.00
2018-06-08T19:22:39.346Z,100341.00
2018-06-08T19:25:09.534Z,100348.00
2018-06-08T19:27:41.827Z,100355.00
2018-06-08T19:30:12.029Z,100354.00
2018-06-08T19:32:42.830Z,100348.00
2018-06-08T19:35:13.724Z,100357.00
2018-06-08T19:37:44.438Z,100355.00
2018-06-08T19:40:17.534Z,100347.00
2018-06-08T19:42:47.787Z,100349.00
2018-06-08T19:45:18.166Z,100355.00
2018-06-08T19:47:49.455Z,100350.00
2018-06-08T19:50:21.787Z,100356.00
2018-06-08T19:52:53.402Z,100354.00
2018-06-08T19:55:24.722Z,100351.00
2018-06-08T19:57:55.176Z,100361.00
2018-06-08T20:00:25.500Z,100360.00
2018-06-08T20:02:56.788Z,100357.00
2018-06-08T20:05:27.068Z,100360.00
2018-06-08T20:07:58.464Z,100365.00
2018-06-08T20:10:31.190Z,100360.00
2018-06-08T20:13:01.646Z,100368.00
2018-06-08T20:15:32.002Z,100368.00
2018-06-08T20:18:02.349Z,100373.00
2018-06-08T20:20:32.766Z,100379.00
2018-06-08T20:23:06.819Z,100373.00
2018-06-08T20:25:37.425Z,100379.00
2018-06-08T20:28:10.351Z,100373.00
2018-06-08T20:30:42.880Z,100378.00
2018-06-08T20:33:13.662Z,100382.00
2018-06-08T20:35:44.090Z,100380.00
2018-06-08T20:38:19.143Z,100385.00
2018-06-08T20:40:50.548Z,100391.00
2018-06-08T20:43:21.415Z,100392.00
2018-06-08T20:45:55.213Z,100387.00
2018-06-08T20:48:26.499Z,100395.00
2018-06-08T20:50:56.704Z,100387.00
2018-06-08T20:53:32.526Z,100391.00
2018-06-08T20:56:03.353Z,100393.00
2018-06-08T20:58:34.917Z,100400.00
2018-06-08T21:01:05.769Z,100391.00
2018-06-08T21:03:36.300Z,100404.00
2018-06-08T21:06:06.544Z,100397.00
2018-06-08T21:08:37.138Z,100397.00
2018-06-08T21:11:09.457Z,100404.00
2018-06-08T21:13:41.466Z,100415.00
2018-06-08T21:16:12.902Z,100414.00
2018-06-08T21:18:45.978Z,100408.00
2018-06-08T21:21:16.149Z,100404.00
2018-06-08T21:23:46.475Z,100406.00
2018-06-08T21:26:16.904Z,100401.00
2018-06-08T21:28:47.406Z,100409.00
2018-06-08T21:31:18.038Z,100406.00
2018-06-08T21:33:48.204Z,100412.00
2018-06-08T21:36:19.046Z,100413.00
2018-06-08T21:38:49.852Z,100407.00
2018-06-08T21:41:20.601Z,100413.00
2018-06-08T21:43:50.930Z,100409.00
2018-06-08T21:46:21.284Z,100406.00
2018-06-08T21:48:51.372Z,100414.00
2018-06-08T21:51:21.762Z,100405.00
2018-06-08T21:53:52.135Z,100412.00
2018-06-08T21:56:22.383Z,100414.00
2018-06-08T21:58:52.731Z,100413.00
2018-06-08T22:01:23.435Z,100405.00
2018-06-08T22:03:54.010Z,100404.00
2018-06-08T22:06:24.451Z,100406.00
2018-06-08T22:08:55.248Z,100402.00
2018-06-08T22:11:26.371Z,100405.00
2018-06-08T22:13:58.186Z,100397.00
2018-06-08T22:16:28.390Z,100407.00
2018-06-08T22:18:58.760Z,100408.00
2018-06-08T22:21:29.366Z,100420.00
2018-06-08T22:23:59.871Z,100407.00
2018-06-08T22:26:30.582Z,100403.00
2018-06-08T22:29:01.581Z,100402.00
2018-06-08T22:31:32.401Z,100418.00
2018-06-08T22:34:03.504Z,100409.00
2018-06-08T22:36:33.593Z,100413.00
2018-06-08T22:39:05.481Z,100411.00
2018-06-08T22:41:35.476Z,100423.00
2018-06-08T22:44:05.842Z,100422.00
2018-06-08T22:46:36.505Z,100416.00
2018-06-08T22:49:06.823Z,100423.00
2018-06-08T22:51:37.604Z,100427.00
2018-06-08T22:54:08.513Z,100428.00
2018-06-08T22:56:38.773Z,100426.00
2018-06-08T22:59:09.180Z,100434.00
2018-06-08T23:01:39.054Z,100428.00
2018-06-08T23:04:09.644Z,100425.00
2018-06-08T23:06:44.665Z,100421.00
2018-06-08T23:09:14.961Z,100424.00
2018-06-08T23:11:44.926Z,100424.00
2018-06-08T23:14:15.092Z,100425.00
2018-06-08T23:16:46.829Z,100422.00
2018-06-08T23:19:17.259Z,100421.00
2018-06-08T23:21:47.326Z,100421.00
2018-06-08T23:24:18.437Z,100423.00
2018-06-08T23:26:49.824Z,100430.00
2018-06-08T23:29:23.090Z,100425.00
2018-06-08T23:31:54.384Z,100425.00
2018-06-08T23:34:24.905Z,100425.00
2018-06-08T23:36:57.245Z,100431.00
2018-06-08T23:39:28.017Z,100432.00
2018-06-08T23:41:59.914Z,100432.00
2018-06-08T23:44:31.173Z,100431.00
2018-06-08T23:47:01.621Z,100424.00
2018-06-08T23:49:32.085Z,100426.00
2018-06-08T23:52:02.578Z,100439.00
2018-06-08T23:54:33.075Z,100426.00
2018-06-08T23:57:03.082Z,100371.00
2018-06-08T23:59:33.437Z,100431.00
